This is the latest recevied weather packets stored in our database for station/object W9WRP. If no packets are shown the sender has not sent any weather packets the latest 1 day(s).
| Time | Temp. | Humidity | Pressure | Rain* | Wind** | Luminosity | Snow |
|---|---|---|---|---|---|---|---|
| 1778037428 | 20° C | 28% | 1013.8 hPa | 0 mm | 0.45 m/s, 241° | 0 W/m² | - |
| 1778037127 | 20.56° C | 28% | 1013.8 hPa | 0 mm | 0 m/s | 0 W/m² | - |
| 1778036824 | 20.56° C | 28% | 1013.5 hPa | 0 mm | 0.45 m/s, 233° | 0 W/m² | - |
| 1778036521 | 20.56° C | 27% | 1013.4 hPa | 0 mm | 0.89 m/s, 210° | 0 W/m² | - |
| 1778036217 | 20.56° C | 27% | 1013.3 hPa | 0 mm | 0.45 m/s, 220° | 0 W/m² | - |
| 1778035914 | 20.56° C | 27% | 1013.1 hPa | 0 mm | 0.45 m/s, 257° | 0 W/m² | - |
| 1778035612 | 20.56° C | 27% | 1013.2 hPa | 0 mm | 0.45 m/s, 265° | 0 W/m² | - |
| 1778035308 | 20.56° C | 27% | 1013.2 hPa | 0 mm | 0.45 m/s, 238° | 0 W/m² | - |
| 1778035004 | 21.11° C | 26% | 1013.1 hPa | 0 mm | 0.45 m/s, 176° | 0 W/m² | - |
| 1778034702 | 21.11° C | 26% | 1012.9 hPa | 0 mm | 0.89 m/s, 208° | 0 W/m² | - |
| 1778034399 | 21.11° C | 26% | 1012.8 hPa | 0 mm | 0.45 m/s, 221° | 1 W/m² | - |
| 1778034096 | 21.11° C | 26% | 1012.7 hPa | 0 mm | 0.45 m/s, 239° | 1 W/m² | - |
| 1778033794 | 21.11° C | 25% | 1012.6 hPa | 0 mm | 1.34 m/s, 198° | 2 W/m² | - |
| 1778033491 | 21.67° C | 25% | 1012.7 hPa | 0 mm | 0.45 m/s, 237° | 4 W/m² | - |
| 1778033188 | 21.67° C | 25% | 1012.5 hPa | 0 mm | 0.89 m/s, 234° | 5 W/m² | - |
| 1778032886 | 21.67° C | 25% | 1012.4 hPa | 0 mm | 0.89 m/s, 242° | 7 W/m² | - |
| 1778032583 | 21.67° C | 25% | 1012.6 hPa | 0 mm | 0.89 m/s, 250° | 10 W/m² | - |
| 1778032280 | 21.67° C | 24% | 1012.2 hPa | 0 mm | 1.34 m/s, 245° | 12 W/m² | - |
| 1778031978 | 21.67° C | 25% | 1012.3 hPa | 0 mm | 0.89 m/s, 221° | 14 W/m² | - |
| 1778031673 | 22.22° C | 24% | 1012.4 hPa | 0 mm | 0.45 m/s, 218° | 15 W/m² | - |
| 1778031371 | 22.22° C | 24% | 1012.1 hPa | 0 mm | 0.89 m/s, 248° | 17 W/m² | - |
| 1778031068 | 22.22° C | 24% | 1012 hPa | 0 mm | 0.45 m/s, 205° | 21 W/m² | - |
| 1778030764 | 23.33° C | 23% | 1012.1 hPa | 0 mm | 0.45 m/s, 236° | 27 W/m² | - |
| 1778030460 | 22.78° C | 23% | 1012.1 hPa | 0 mm | 0 m/s | 55 W/m² | - |
| 1778030158 | 22.78° C | 23% | 1012.1 hPa | 0 mm | 0.45 m/s, 293° | 50 W/m² | - |
* Rain latest hour (hover to see other rain measurements)
** Current wind speed in m/s (hover to see current wind gust speed)